Map

Track Data

SID SEASON NUMBER BASIN SUBBASIN NAME ISO_TIME NATURE LAT LON WMO_WIND WMO_PRES WMO_AGENCY TRACK_TYPE DIST2LAND LANDFALL IFLAG USA_AGENCY USA_ATCF_ID USA_LAT USA_LON USA_RECORD USA_STATUS USA_WIND USA_PRES USA_SSHS USA_R34_NE USA_R34_SE USA_R34_SW USA_R34_NW USA_R50_NE USA_R50_SE USA_R50_SW USA_R50_NW USA_R64_NE USA_R64_SE USA_R64_SW USA_R64_NW USA_POCI USA_ROCI USA_RMW USA_EYE TOKYO_LAT TOKYO_LON TOKYO_GRADE TOKYO_WIND TOKYO_PRES TOKYO_R50_DIR TOKYO_R50_LONG TOKYO_R50_SHORT TOKYO_R30_DIR TOKYO_R30_LONG TOKYO_R30_SHORT TOKYO_LAND CMA_LAT CMA_LON CMA_CAT CMA_WIND CMA_PRES HKO_LAT HKO_LON HKO_CAT HKO_WIND HKO_PRES NEWDELHI_LAT NEWDELHI_LON NEWDELHI_GRADE NEWDELHI_WIND NEWDELHI_PRES NEWDELHI_CI NEWDELHI_DP NEWDELHI_POCI REUNION_LAT REUNION_LON REUNION_TYPE REUNION_WIND REUNION_PRES REUNION_TNUM REUNION_CI REUNION_RMW REUNION_R34_NE REUNION_R34_SE REUNION_R34_SW REUNION_R34_NW REUNION_R50_NE REUNION_R50_SE REUNION_R50_SW REUNION_R50_NW REUNION_R64_NE REUNION_R64_SE REUNION_R64_SW REUNION_R64_NW BOM_LAT BOM_LON BOM_TYPE BOM_WIND BOM_PRES BOM_TNUM BOM_CI BOM_RMW BOM_R34_NE BOM_R34_SE BOM_R34_SW BOM_R34_NW BOM_R50_NE BOM_R50_SE BOM_R50_SW BOM_R50_NW BOM_R64_NE BOM_R64_SE BOM_R64_SW BOM_R64_NW BOM_ROCI BOM_POCI BOM_EYE BOM_POS_METHOD BOM_PRES_METHOD NADI_LAT NADI_LON NADI_CAT NADI_WIND NADI_PRES WELLINGTON_LAT WELLINGTON_LON WELLINGTON_WIND WELLINGTON_PRES DS824_LAT DS824_LON DS824_STAGE DS824_WIND DS824_PRES TD9636_LAT TD9636_LON TD9636_STAGE TD9636_WIND TD9636_PRES TD9635_LAT TD9635_LON TD9635_WIND TD9635_PRES TD9635_ROCI NEUMANN_LAT NEUMANN_LON NEUMANN_CLASS NEUMANN_WIND NEUMANN_PRES MLC_LAT MLC_LON MLC_CLASS MLC_WIND MLC_PRES USA_GUST BOM_GUST BOM_GUST_PER REUNION_GUST REUNION_GUST_PER USA_SEAHGT USA_SEARAD_NE USA_SEARAD_SE USA_SEARAD_SW USA_SEARAD_NW STORM_SPEED STORM_DIR
1958011S11137 1958 3 SP EA NOT_NAMED 1958-01-11 05:00:00 NR -11.0000 137.000 1005 bom spur-merge 124 114 ______O___O___ -1 -11.0000 137.000 1005 -11.0000 137.000 1 20 4 0
1958011S11137 1958 3 SP EA NOT_NAMED 1958-01-11 06:00:00 TS -11.0703 137.012 spur-merge 114 104 O_____P__OP___ jtwc_sh SH061958 -11.1000 137.000 20 -1 -11.0072 137.003 -11.1000 137.000 TC 20 1005 -11.0889 137.040 1 20 4 157
1958011S11137 1958 3 SP EA NOT_NAMED 1958-01-11 09:00:00 TS -11.2465 137.110 spur-merge 110 101 P_____P__PP___ SH061958 -11.3500 137.167 20 -1 -11.0369 137.014 -11.1937 137.067 TC -11.3531 137.157 1 20 4 153
1958011S11137 1958 3 SP EA NOT_NAMED 1958-01-11 12:00:00 TS -11.4310 137.198 spur-merge 101 81 O_____P__PP___ jtwc_sh SH061958 -11.6000 137.300 20 -1 -11.0951 137.029 -11.3034 137.132 TC -11.6090 137.264 1 20 4 158
1958011S11137 1958 3 SP EA NOT_NAMED 1958-01-11 15:00:00 TS -11.6398 137.269 spur-merge 84 64 P_____P__PP___ SH061958 -11.8500 137.373 20 -1 -11.2034 137.054 -11.4453 137.194 TC -11.8503 137.354 1 20 4 165
1958011S11137 1958 3 SP EA NOT_NAMED 1958-01-11 17:00:00 TS -11.7826 137.300 spur-merge 64 64 P_____P__PO___ SH061958 -12.0167 137.394 20 -1 -11.3139 137.077 -11.5656 137.232 TC -12.0000 137.400 1 20 4 172
1958011S11137 1958 3 SP EA NOT_NAMED 1958-01-11 18:00:00 TS -11.8579 137.312 spur-merge 55 39 O_____P__PP___ jtwc_sh SH061958 -12.1000 137.400 20 -1 -11.3830 137.091 -11.6353 137.251 TC -12.0710 137.418 1 20 5 174
1958011S11137 1958 3 SP EA NOT_NAMED 1958-01-11 21:00:00 TS -12.1048 137.343 spur-merge 39 34 P_____P__PP___ SH061958 -12.3500 137.408 20 -1 -11.6555 137.145 -11.8897 137.301 TC -12.2790 137.453 1 20 5 174
1958011S11137 1958 3 SP EA NOT_NAMED 1958-01-12 00:00:00 TS -12.3941 137.364 spur-merge 44 44 O_____P__PP___ jtwc_sh SH061958 -12.6000 137.400 20 -1 -12.0425 137.219 -12.2245 137.344 TC -12.5037 137.458 1 20 6 176
1958011S11137 1958 3 SP EA NOT_NAMED 1958-01-12 03:00:00 TS -12.7185 137.392 spur-merge 62 62 P_____P__PP___ SH061958 -12.7975 137.415 20 -1 -12.5653 137.318 -12.6559 137.378 TC -12.7762 137.433 1 20 7 176
1958011S11137 1958 3 SP EA NOT_NAMED 1958-01-12 05:00:00 TS -12.9917 137.403 1004 bom spur-merge 75 75 P_____O__PO___ SH061958 -12.9767 137.411 20 -1 -13.0000 137.400 1004 -13.0051 137.394 TC -13.0000 137.400 1 20 9 177
1958011S11137 1958 3 SP EA NOT_NAMED 1958-01-12 06:00:00 TS -13.1653 137.407 spur-merge 79 54 O_____P__OP___ jtwc_sh SH061958 -13.1000 137.400 20 -1 -13.2442 137.445 1004 -13.2000 137.400 TC 20 1004 -13.1823 137.388 1 19 12 181
1958011S11137 1958 3 SP EA NOT_NAMED 1958-01-12 09:00:00 TS -13.8062 137.385 spur-merge 54 32 P_____P__PP___ SH061958 -13.6850 137.315 17 -1 -14.0146 137.562 1004 -13.8413 137.399 TC 20 1004 -13.8048 137.332 1 16 13 184
1958011S11137 1958 3 SP EA NOT_NAMED 1958-01-12 12:00:00 TS -14.4276 137.306 spur-merge 34 34 O_____P__PP___ jtwc_sh SH061958 -14.3000 137.200 15 -1 -14.6812 137.562 1004 -14.4377 137.324 TC 20 1004 -14.4190 137.242 1 14 11 191
1958011S11137 1958 3 SP EA NOT_NAMED 1958-01-12 15:00:00 TS -14.8732 137.161 spur-merge 70 68 P_____P__PP___ SH061958 -14.8224 137.123 12 -1 -15.0373 137.334 1004 -14.8153 137.112 TC 20 1004 -14.8687 137.112 1 11 8 209
1958011S11137 1958 3 SP EA NOT_NAMED 1958-01-12 17:00:00 TS -14.9716 136.993 1004 bom spur-merge 78 67 P_____O__PO___ SH061958 -14.9992 137.051 10 -1 -15.0000 137.000 1004 -14.8595 136.863 TC 20 1004 -15.0000 137.000 1 10 6 262
1958011S11137 1958 3 SP EA NOT_NAMED 1958-01-12 18:00:00 TS -14.9149 136.869 spur-merge 67 22 O_____P__OP___ jtwc_sh SH061958 -15.0000 137.000 10 -1 -14.8321 136.677 1004 -14.8000 136.700 TC 20 1004 -14.9424 136.967 1 10 12 315
1958011S11137 1958 3 SP EA NOT_NAMED 1958-01-12 21:00:00 TS -14.3907 136.392 spur-merge 22 0 P_____P__PP___ SH061958 -14.5700 136.787 10 -1 -14.0860 135.636 1004 -14.1885 135.902 TC 20 1004 -14.5392 136.849 1 10 15 323
1958011S11137 1958 3 SP EA NOT_NAMED 1958-01-12 23:00:00 TS -13.9383 136.116 1005 bom spur-merge 15 0 P_____O__PP___ SH061958 -14.1191 136.603 10 -1 -13.6000 135.200 1005 -13.7055 135.443 TC 20 1004 -14.1479 136.731 1 10 15 332
1958011S11137 1958 3 SP EA NOT_NAMED 1958-01-13 00:00:00 TS -13.7357 136.035 spur-merge 10 0 O_____P__OP___ jtwc_sh SH061958 -13.9000 136.500 10 -1 -13.4419 135.224 1004 -13.5000 135.300 TC 20 1005 -13.9365 136.654 1 10 10 351
1958011S11137 1958 3 SP EA NOT_NAMED 1958-01-13 03:00:00 TS -13.2697 136.005 spur-merge 0 0 P_____P__PP___ SH061958 -13.3743 136.270 10 -1 -13.1198 135.707 1004 -13.1573 135.452 TC 20 1004 -13.3227 136.324 1 10 8 351
1958011S11137 1958 3 SP EA NOT_NAMED 1958-01-13 05:00:00 TS -13.0469 135.931 1004 bom spur-merge 0 0 P_____O__PO___ SH061958 -13.0986 136.002 10 -1 -13.0000 136.000 1004 -13.0375 135.652 TC 20 1004 -13.0000 136.000 1 10 7 325
1958011S11137 1958 3 SP EA NOT_NAMED 1958-01-13 06:00:00 TS -12.9717 135.792 spur-merge 0 0 O_____P__OP___ jtwc_sh SH061958 -13.0000 135.800 10 -1 -12.9368 135.910 1004 -13.0000 135.700 TC 20 1004 -12.9219 135.751 1 10 14 282
1958011S11137 1958 3 SI WA NOT_NAMED 1958-01-13 09:00:00 TS -12.8502 134.966 spur-merge 0 0 P_____P__PP___ SH061958 -12.8687 134.788 10 -1 -12.8284 135.222 1004 -12.8929 135.186 TC 20 1004 -12.7921 134.847 1 10 18 274
1958011S11137 1958 3 SI WA NOT_NAMED 1958-01-13 12:00:00 TS -12.8611 133.944 spur-merge 0 0 O_____P__PP___ jtwc_sh SH061958 -12.9000 133.700 10 -1 -12.8245 134.168 1004 -12.8881 134.298 TC 20 1004 -12.7929 133.854 1 10 19 268
1958011S11137 1958 3 SI WA NOT_NAMED 1958-01-13 15:00:00 TS -12.9313 133.049 spur-merge 0 0 P_____P__PP___ SH061958 -12.9471 132.950 10 -1 -12.9058 133.080 1004 -12.9634 133.311 TC 20 1004 -12.8928 132.955 1 10 16 263
1958011S11137 1958 3 SI WA NOT_NAMED 1958-01-13 17:00:00 TS -13.0241 132.592 1004 bom spur-merge 0 0 P_____O__PO___ SH061958 -13.0358 132.614 10 -1 -13.0000 132.500 1004 -13.0487 132.733 TC 20 1004 -13.0000 132.500 1 10 12 255
1958011S11137 1958 3 SI WA NOT_NAMED 1958-01-13 18:00:00 TS -13.0845 132.452 spur-merge 0 0 O_____P__OP___ jtwc_sh SH061958 -13.1000 132.500 10 -1 -13.0613 132.379 1004 -13.1000 132.500 TC 20 1004 -13.0613 132.379 1 10 7 224
1958011S11137 1958 3 SI WA NOT_NAMED 1958-01-13 21:00:00 TS -13.3400 132.279 spur-merge 0 0 P_____P__PP___ SH061958 -13.3923 132.360 12 -1 -13.3066 132.203 1004 -13.3025 132.268 TC 20 1004 -13.3066 132.203 1 11 6 195
1958011S11137 1958 3 SI WA NOT_NAMED 1958-01-14 00:00:00 TS -13.6292 132.299 spur-merge 0 0 O_____P__PP___ jtwc_sh SH061958 -13.7000 132.400 15 -1 -13.5951 132.224 1004 -13.5558 132.247 TC 20 1004 -13.5951 132.224 1 12 5 171
1958011S11137 1958 3 SI WA NOT_NAMED 1958-01-14 03:00:00 TS -13.8646 132.359 spur-merge 0 0 P_____P__PP___ SH061958 -13.8950 132.400 15 -1 -13.8635 132.333 1004 -13.8063 132.327 TC 20 1004 -13.8635 132.333 1 14 4 165
1958011S11137 1958 3 SI WA NOT_NAMED 1958-01-14 05:00:00 TS -13.9790 132.398 1005 bom spur-merge 0 0 P_____O__PO___ SH061958 -13.9750 132.403 15 -1 -14.0000 132.400 1005 -13.9450 132.383 TC 20 1004 -14.0000 132.400 1 15 3 160
1958011S11137 1958 3 SI WA NOT_NAMED 1958-01-14 06:00:00 TS -14.0133 132.409 spur-merge 0 0 O_____P__OP___ jtwc_sh SH061958 -14.0000 132.400 15 -1 -14.0332 132.424 1005 -14.0000 132.400 TC 20 1005 -14.0332 132.424 1 14 1 154
1958011S11137 1958 3 SI WA NOT_NAMED 1958-01-14 09:00:00 TS -14.0504 132.431 spur-merge 0 0 P_____P__PP___ SH061958 -14.0225 132.365 12 -1 -14.0777 132.504 1005 -14.0514 132.417 TC 20 1005 -14.0777 132.504 1 13 0 0
1958011S11137 1958 3 SI WA NOT_NAMED 1958-01-14 12:00:00 TS -14.0343 132.409 spur-merge 0 0 O_____P__PP___ jtwc_sh SH061958 -14.0000 132.300 10 -1 -14.0643 132.529 1005 -14.0431 132.389 TC 20 1005 -14.0643 132.529 1 12 1 291
1958011S11137 1958 3 SI WA NOT_NAMED 1958-01-14 15:00:00 TS -14.0125 132.330 spur-merge 0 0 P_____P__PP___ SH061958 -13.9997 132.298 10 -1 -14.0250 132.407 1005 -14.0133 132.242 TC 20 1005 -14.0250 132.407 1 10 3 278
1958011S11137 1958 3 SI WA NOT_NAMED 1958-01-14 17:00:00 TS -14.0000 132.170 1005 bom spur-merge 0 0 P_____O__PO___ SH061958 -13.9998 132.204 10 -1 -14.0000 132.200 1005 -14.0003 132.040 TC 20 1005 -14.0000 132.200 1 10 6 276
1958011S11137 1958 3 SI WA NOT_NAMED 1958-01-14 18:00:00 TS -13.9852 132.042 spur-merge 0 0 O_____P__OP___ jtwc_sh SH061958 -14.0000 132.100 10 -1 -13.9629 132.054 1004 -14.0000 131.900 TC 20 1005 -13.9629 132.054 1 11 10 276
1958011S11137 1958 3 SI WA NOT_NAMED 1958-01-14 21:00:00 TS -13.9242 131.468 spur-merge 0 0 P_____P__PP___ SH061958 -13.9923 131.542 15 -1 -13.8362 131.461 1004 -13.9638 131.333 TC 20 1004 -13.8362 131.461 1 16 13 275
1958011S11137 1958 3 SI WA NOT_NAMED 1958-01-14 23:00:00 TS -13.8982 130.951 spur-merge 0 0 P_____P__PP___ SH061958 -13.9941 131.005 18 -1 -13.7738 130.951 1004 -13.9550 130.842 TC 20 1004 -13.7738 130.951 1 20 16 272
1958011S11137 1958 3 SI WA NOT_NAMED 1958-01-15 00:00:00 TS -13.8962 130.660 spur-merge 0 0 O_____P__PP___ jtwc_sh SH061958 -14.0000 130.700 20 -1 -13.7597 130.667 1004 -13.9618 130.566 TC 20 1004 -13.7597 130.667 1 21 18 269
1958011S11137 1958 3 SI WA NOT_NAMED 1958-01-15 03:00:00 TS -13.9106 129.710 spur-merge 0 0 P_____P__PP___ SH061958 -13.9220 129.745 25 -1 -13.8277 129.710 1004 -14.0538 129.641 TC 20 1004 -13.8277 129.710 1 26 20 265
1958011S11137 1958 3 SI WA NOT_NAMED 1958-01-15 05:00:00 TS -14.0350 128.992 1004 bom spur-merge 54 54 P_____O__PO___ SH061958 -13.9890 129.001 28 -1 -14.0000 129.000 1004 -14.1970 128.958 TC 20 1004 -14.0000 129.000 1 30 22 256
1958011S11137 1958 3 SI WA NOT_NAMED 1958-01-15 06:00:00 TS -14.1850 128.605 spur-merge 70 0 O_____P__OP___ jtwc_sh SH061958 -14.1000 128.600 30 -1 -14.2124 128.612 1004 -14.3000 128.600 TC 20 1004 -14.2124 128.612 1 28 28 241
1958011S11137 1958 3 SI WA NOT_NAMED 1958-01-15 09:00:00 TS -14.9518 127.313 spur-merge 0 0 P_____P__PP___ SH061958 -14.8682 127.252 25 -1 -15.0405 127.329 1004 -14.9415 127.401 TC 20 1004 -15.0405 127.329 1 25 30 237
1958011S11137 1958 3 SI WA NOT_NAMED 1958-01-15 11:00:00 TS -15.5544 126.413 spur-merge 0 0 P_____P__PP___ SH061958 -15.5036 126.333 21 -1 -15.6574 126.429 1004 -15.4503 126.542 TC 20 1004 -15.6574 126.429 1 22 31 235
1958011S11137 1958 3 SI WA NOT_NAMED 1958-01-15 12:00:00 TS -15.8442 125.974 spur-merge 0 0 O_____P__PP___ jtwc_sh SH061958 -15.8000 125.900 20 -1 -15.9572 125.981 1004 -15.7064 126.110 TC 20 1004 -15.9572 125.981 1 21 29 237
1958011S11137 1958 3 SI WA NOT_NAMED 1958-01-15 15:00:00 TS -16.6095 124.755 spur-merge 0 0 P_____P__PP___ SH061958 -16.6170 124.739 17 -1 -16.7107 124.718 1004 -16.3922 124.862 TC 20 1004 -16.7107 124.718 1 17 26 240
1958011S11137 1958 3 SI WA NOT_NAMED 1958-01-15 17:00:00 TS -16.9214 124.058 1004 bom spur-merge 0 0 P_____O__PO___ SH061958 -16.9500 124.084 15 -1 -17.0000 124.000 1004 -16.7071 124.125 TC 20 1004 -17.0000 124.000 1 15 20 250
1958011S11137 1958 3 SI WA NOT_NAMED 1958-01-15 18:00:00 TS -16.9449 123.767 spur-merge 0 0 O_____P__OP___ jtwc_sh SH061958 -17.0000 123.800 15 -1 -16.9622 123.717 1004 -16.8000 123.800 TC 20 1004 -16.9622 123.717 1 15 15 288
1958011S11137 1958 3 SI WA NOT_NAMED 1958-01-15 21:00:00 TS -16.6014 123.056 spur-merge 10 0 P_____P__PP___ SH061958 -16.5493 123.093 17 -1 -16.5608 123.033 1004 -16.7867 123.031 TC 20 1004 -16.5608 123.033 1 16 15 307
1958011S11137 1958 3 SI WA NOT_NAMED 1958-01-15 23:00:00 TS -16.1890 122.708 spur-merge 39 39 P_____P__PP___ SH061958 -16.0399 122.747 19 -1 -16.1454 122.691 1004 -16.5743 122.663 TC 20 1004 -16.1454 122.691 1 17 16 323
1958011S11137 1958 3 SI WA NOT_NAMED 1958-01-16 00:00:00 TS -15.9725 122.561 spur-merge 64 64 O_____P__PP___ jtwc_sh SH061958 -15.8000 122.600 20 -1 -15.9211 122.547 1004 -16.4202 122.513 TC 20 1004 -15.9211 122.547 1 17 15 327
1958011S11137 1958 3 SI WA NOT_NAMED 1958-01-16 01:00:00 TS -15.7731 122.424 spur-merge 94 94 P_____P__PP___ SH061958 -15.6148 122.452 20 -1 -15.6978 122.418 1004 -16.2400 122.382 TC 20 1004 -15.6978 122.418 1 18 14 329
1958011S11137 1958 3 SI WA NOT_NAMED 1958-01-16 03:00:00 TS -15.3730 122.194 spur-merge 144 144 P_____P__PP___ SH061958 -15.2873 122.205 20 -1 -15.2915 122.194 1004 -15.8188 122.164 TC 20 1004 -15.2915 122.194 1 19 12 330
1958011S11137 1958 3 SI WA NOT_NAMED 1958-01-16 05:00:00 TS -15.0650 121.997 1004 bom spur-merge 183 183 P_____O__PO___ SH061958 -15.0599 121.998 20 -1 -15.0000 122.000 1004 -15.3454 121.984 TC 20 1004 -15.0000 122.000 1 20 10 325
1958011S11137 1958 3 SI WA NOT_NAMED 1958-01-16 06:00:00 TS -14.9673 121.904 spur-merge 199 199 O_____P__OP___ jtwc_sh SH061958 -15.0000 121.900 20 -1 -14.9180 121.908 1004 -15.1000 121.900 TC 20 1004 -14.9180 121.908 1 20 6 285
1958011S11137 1958 3 SI WA NOT_NAMED 1958-01-16 09:00:00 TS -14.9730 121.628 spur-merge 218 216 P_____P___P___ SH061958 -15.0502 121.603 20 -1 -14.9152 121.647 1004 TC -14.9152 121.647 1 20 6 251
1958011S11137 1958 3 SI WA NOT_NAMED 1958-01-16 11:00:00 TS -15.1201 121.454 spur-merge 216 216 P_____P___P___ SH061958 -15.2069 121.401 20 -1 -15.0767 121.480 1004 TC -15.0767 121.480 1 20 7 224
1958011S11137 1958 3 SI WA NOT_NAMED 1958-01-16 12:00:00 TS -15.2210 121.374 spur-merge 216 201 O_____P___P___ jtwc_sh SH061958 -15.3000 121.300 20 -1 -15.1947 121.399 1004 TC -15.1947 121.399 1 20 9 208
1958011S11137 1958 3 SI WA NOT_NAMED 1958-01-16 15:00:00 NR -15.6505 121.158 spur-merge 193 185 ______P___P___ SH061958 -1 -15.6505 121.158 1004 TC -15.6505 121.158 1 20 10 205
1958011S11137 1958 3 SI WA NOT_NAMED 1958-01-16 17:00:00 NR -16.0000 121.000 1004 bom spur-merge 185 ______O___O___ SH061958 -1 -16.0000 121.000 1004 TC -16.0000 121.000 1 20 12 204

Digital Typhoon Data and Search

About IBTrACS Database

This database is a web-friendly format of International Best Track Archive for Climate Stewardship (IBTrACS), a global best track data archive curated by NOAA dating back to 1842.

Updated: 2021-10-21